PDT5867 KCLT-KTLH
Flight info
| Callsign | PDT5867 |
|---|---|
| Flight time | 1h 7m |
| Altitude | 34000 |
| Route | BEAVY6 JENDO MAVRC AMG SZW |
| Aircraft | E145/M-SABDFGRW/S |
Departure
| Time | 2026-04-20 16:07 |
|---|---|
| Airport | Charlotte Douglas International Airport (KCLT) |
Arrival
| Time | 2026-04-20 17:15 |
|---|---|
| Airport | Tallahassee International Airport (KTLH) |
| Time | Latitude | Longitude | Altitude | Speed | Heading |
|---|---|---|---|---|---|
| 2026-04-20 15:52 | 35.22543 | -80.94123 | 755 ft | 0 kts | 87° |
| 2026-04-20 16:00 | 35.22543 | -80.94132 | 755 ft | 2 kts | 76° |
| 2026-04-20 16:00 | 35.22537 | -80.94149 | 755 ft | 2 kts | 53° |
| 2026-04-20 16:01 | 35.22526 | -80.94161 | 755 ft | 2 kts | 32° |
| 2026-04-20 16:01 | 35.22513 | -80.94169 | 755 ft | 2 kts | 11° |
| 2026-04-20 16:01 | 35.22503 | -80.94170 | 755 ft | 0 kts | 360° |
| 2026-04-20 16:04 | 35.22504 | -80.94170 | 755 ft | 1 kts | 360° |
| 2026-04-20 16:04 | 35.22523 | -80.94170 | 755 ft | 6 kts | 1° |
| 2026-04-20 16:04 | 35.22577 | -80.94168 | 755 ft | 8 kts | 10° |
| 2026-04-20 16:04 | 35.22627 | -80.94120 | 755 ft | 10 kts | 58° |
| 2026-04-20 16:05 | 35.22642 | -80.94029 | 755 ft | 11 kts | 91° |
| 2026-04-20 16:05 | 35.22633 | -80.93922 | 755 ft | 13 kts | 109° |
| 2026-04-20 16:05 | 35.22566 | -80.93848 | 755 ft | 12 kts | 170° |
| 2026-04-20 16:05 | 35.22499 | -80.93790 | 755 ft | 13 kts | 99° |
| 2026-04-20 16:06 | 35.22510 | -80.93677 | 755 ft | 12 kts | 83° |
| 2026-04-20 16:06 | 35.22470 | -80.93619 | 755 ft | 9 kts | 168° |
| 2026-04-20 16:06 | 35.22448 | -80.93614 | 755 ft | 0 kts | 175° |
| 2026-04-20 16:06 | 35.22287 | -80.93602 | 755 ft | 58 kts | 176° |
| 2026-04-20 16:07 | 35.21661 | -80.93548 | 755 ft | 119 kts | 176° |
| 2026-04-20 16:07 | 35.20693 | -80.93455 | 890 ft | 148 kts | 176° |
| 2026-04-20 16:07 | 35.19640 | -80.93311 | 1353 ft | 159 kts | 175° |
| 2026-04-20 16:07 | 35.18563 | -80.93484 | 1888 ft | 161 kts | 203° |
| 2026-04-20 16:08 | 35.17453 | -80.93918 | 2328 ft | 179 kts | 199° |
| 2026-04-20 16:08 | 35.16112 | -80.94380 | 2310 ft | 221 kts | 197° |
| 2026-04-20 16:08 | 35.15070 | -80.94723 | 2416 ft | 242 kts | 197° |
| 2026-04-20 16:08 | 35.12841 | -80.95444 | 3252 ft | 253 kts | 197° |
| 2026-04-20 16:09 | 35.11134 | -80.95995 | 3955 ft | 258 kts | 197° |
| 2026-04-20 16:09 | 35.09396 | -80.96555 | 4663 ft | 262 kts | 198° |
| 2026-04-20 16:09 | 35.07601 | -80.97134 | 5329 ft | 267 kts | 198° |
| 2026-04-20 16:09 | 35.05802 | -80.97714 | 5997 ft | 272 kts | 199° |
| 2026-04-20 16:10 | 35.03956 | -80.98308 | 6634 ft | 277 kts | 199° |
| 2026-04-20 16:10 | 35.02090 | -80.98909 | 7308 ft | 281 kts | 200° |
| 2026-04-20 16:10 | 35.00207 | -80.99515 | 8002 ft | 283 kts | 200° |
| 2026-04-20 16:10 | 34.98299 | -81.00129 | 8657 ft | 286 kts | 200° |
| 2026-04-20 16:11 | 34.96356 | -81.00753 | 9314 ft | 289 kts | 200° |
| 2026-04-20 16:11 | 34.94421 | -81.01375 | 9965 ft | 291 kts | 200° |
| 2026-04-20 16:11 | 34.92444 | -81.02010 | 10596 ft | 295 kts | 201° |
| 2026-04-20 16:11 | 34.90429 | -81.02659 | 10835 ft | 313 kts | 200° |
| 2026-04-20 16:12 | 34.88249 | -81.03359 | 10846 ft | 336 kts | 200° |
| 2026-04-20 16:12 | 34.85896 | -81.04112 | 10862 ft | 357 kts | 200° |
| 2026-04-20 16:12 | 34.83440 | -81.04899 | 10871 ft | 376 kts | 199° |
| 2026-04-20 16:12 | 34.80841 | -81.05715 | 11083 ft | 387 kts | 197° |
| 2026-04-20 16:13 | 34.78182 | -81.06239 | 11573 ft | 390 kts | 193° |
| 2026-04-20 16:13 | 34.75510 | -81.06730 | 12051 ft | 391 kts | 193° |
| 2026-04-20 16:13 | 34.72792 | -81.07228 | 12536 ft | 392 kts | 193° |
| 2026-04-20 16:13 | 34.70110 | -81.07719 | 13009 ft | 392 kts | 194° |
| 2026-04-20 16:14 | 34.67385 | -81.08218 | 13414 ft | 395 kts | 194° |
| 2026-04-20 16:14 | 34.64682 | -81.08714 | 13850 ft | 396 kts | 194° |
| 2026-04-20 16:14 | 34.61968 | -81.09209 | 14242 ft | 398 kts | 194° |
| 2026-04-20 16:14 | 34.59205 | -81.09715 | 14628 ft | 400 kts | 194° |
| 2026-04-20 16:15 | 34.56462 | -81.10225 | 14986 ft | 402 kts | 195° |
| 2026-04-20 16:15 | 34.53691 | -81.10822 | 15398 ft | 403 kts | 196° |
| 2026-04-20 16:15 | 34.50941 | -81.11412 | 15740 ft | 405 kts | 197° |
| 2026-04-20 16:15 | 34.48131 | -81.12015 | 16061 ft | 409 kts | 197° |
| 2026-04-20 16:16 | 34.45351 | -81.12611 | 16504 ft | 409 kts | 197° |
| 2026-04-20 16:16 | 34.42559 | -81.13208 | 16859 ft | 410 kts | 197° |
| 2026-04-20 16:16 | 34.39717 | -81.13816 | 17238 ft | 412 kts | 197° |
| 2026-04-20 16:16 | 34.36907 | -81.14426 | 17527 ft | 413 kts | 198° |
| 2026-04-20 16:17 | 34.34112 | -81.15268 | 17891 ft | 411 kts | 201° |
| 2026-04-20 16:17 | 34.33350 | -81.15501 | 17972 ft | 412 kts | 201° |
| 2026-04-20 16:17 | 34.33238 | -81.15535 | 17981 ft | 412 kts | 201° |
| 2026-04-20 16:17 | 34.32581 | -81.15734 | 18032 ft | 413 kts | 201° |
| 2026-04-20 16:18 | 34.29795 | -81.16580 | 18322 ft | 416 kts | 201° |
| 2026-04-20 16:18 | 34.27028 | -81.17415 | 18926 ft | 409 kts | 201° |
| 2026-04-20 16:18 | 34.24279 | -81.18243 | 19696 ft | 399 kts | 201° |
| 2026-04-20 16:18 | 34.21636 | -81.19040 | 20498 ft | 389 kts | 202° |
| 2026-04-20 16:19 | 34.19024 | -81.19830 | 20848 ft | 391 kts | 202° |
| 2026-04-20 16:19 | 34.16348 | -81.20637 | 21137 ft | 395 kts | 201° |
| 2026-04-20 16:19 | 34.13692 | -81.21435 | 21491 ft | 396 kts | 201° |
| 2026-04-20 16:19 | 34.10995 | -81.22247 | 21862 ft | 398 kts | 202° |
| 2026-04-20 16:20 | 34.08316 | -81.23052 | 22171 ft | 401 kts | 201° |
| 2026-04-20 16:20 | 34.05621 | -81.23861 | 22465 ft | 403 kts | 201° |
| 2026-04-20 16:20 | 34.02875 | -81.24685 | 22843 ft | 404 kts | 201° |
| 2026-04-20 16:20 | 34.00152 | -81.25502 | 23103 ft | 408 kts | 201° |
| 2026-04-20 16:21 | 33.97378 | -81.26334 | 23438 ft | 409 kts | 201° |
| 2026-04-20 16:21 | 33.94651 | -81.27148 | 24107 ft | 400 kts | 202° |
| 2026-04-20 16:21 | 33.92000 | -81.27939 | 25016 ft | 385 kts | 203° |
| 2026-04-20 16:21 | 33.89411 | -81.28716 | 25392 ft | 386 kts | 203° |
| 2026-04-20 16:22 | 33.86783 | -81.29504 | 25607 ft | 390 kts | 204° |
| 2026-04-20 16:22 | 33.84140 | -81.30298 | 26027 ft | 387 kts | 205° |
| 2026-04-20 16:22 | 33.81635 | -81.31319 | 26463 ft | 377 kts | 211° |
| 2026-04-20 16:22 | 33.79190 | -81.32391 | 26886 ft | 375 kts | 211° |
| 2026-04-20 16:23 | 33.76718 | -81.33470 | 27215 ft | 376 kts | 211° |
| 2026-04-20 16:23 | 33.74278 | -81.34531 | 27617 ft | 373 kts | 211° |
| 2026-04-20 16:23 | 33.71917 | -81.35548 | 28662 ft | 348 kts | 213° |
| 2026-04-20 16:23 | 33.69827 | -81.36441 | 30317 ft | 304 kts | 216° |
| 2026-04-20 16:24 | 33.67913 | -81.37282 | 30914 ft | 294 kts | 217° |
| 2026-04-20 16:24 | 33.65951 | -81.38147 | 30991 ft | 302 kts | 216° |
| 2026-04-20 16:24 | 33.63965 | -81.39011 | 31226 ft | 304 kts | 217° |
| 2026-04-20 16:24 | 33.61973 | -81.39874 | 31539 ft | 303 kts | 217° |
| 2026-04-20 16:25 | 33.59968 | -81.40742 | 31859 ft | 302 kts | 217° |
| 2026-04-20 16:25 | 33.57996 | -81.41596 | 32171 ft | 301 kts | 217° |
| 2026-04-20 16:25 | 33.56014 | -81.42456 | 32401 ft | 302 kts | 217° |
| 2026-04-20 16:25 | 33.54034 | -81.43309 | 32805 ft | 297 kts | 218° |
| 2026-04-20 16:26 | 33.52090 | -81.44151 | 33051 ft | 297 kts | 218° |
| 2026-04-20 16:26 | 33.50162 | -81.44984 | 33380 ft | 294 kts | 219° |
| 2026-04-20 16:26 | 33.48209 | -81.45829 | 33665 ft | 293 kts | 219° |
| 2026-04-20 16:26 | 33.46296 | -81.46656 | 33888 ft | 293 kts | 219° |
| 2026-04-20 16:27 | 33.44388 | -81.47479 | 34113 ft | 293 kts | 219° |
| 2026-04-20 16:27 | 33.42445 | -81.48319 | 34274 ft | 295 kts | 219° |
| 2026-04-20 16:27 | 33.38490 | -81.50030 | 34298 ft | 311 kts | 218° |
| 2026-04-20 16:28 | 33.34334 | -81.51818 | 34292 ft | 320 kts | 218° |
| 2026-04-20 16:28 | 33.30094 | -81.53642 | 34303 ft | 328 kts | 218° |
| 2026-04-20 16:29 | 33.25745 | -81.55511 | 34302 ft | 336 kts | 218° |
| 2026-04-20 16:29 | 33.21322 | -81.57410 | 34304 ft | 344 kts | 217° |
| 2026-04-20 16:30 | 33.16759 | -81.59367 | 34299 ft | 351 kts | 217° |
| 2026-04-20 16:30 | 33.12110 | -81.61358 | 34278 ft | 358 kts | 217° |
| 2026-04-20 16:31 | 33.07378 | -81.63383 | 34280 ft | 364 kts | 217° |
| 2026-04-20 16:31 | 33.02586 | -81.65430 | 34298 ft | 369 kts | 216° |
| 2026-04-20 16:32 | 32.97693 | -81.67521 | 34307 ft | 376 kts | 216° |
| 2026-04-20 16:32 | 32.92720 | -81.69641 | 34308 ft | 383 kts | 216° |
| 2026-04-20 16:33 | 32.87668 | -81.71792 | 34300 ft | 388 kts | 216° |
| 2026-04-20 16:33 | 32.82547 | -81.73970 | 34305 ft | 393 kts | 215° |
| 2026-04-20 16:34 | 32.77371 | -81.76169 | 34311 ft | 397 kts | 215° |
| 2026-04-20 16:34 | 32.72138 | -81.78390 | 34312 ft | 401 kts | 215° |
| 2026-04-20 16:35 | 32.66842 | -81.80634 | 34314 ft | 404 kts | 215° |
| 2026-04-20 16:35 | 32.61648 | -81.83088 | 34315 ft | 391 kts | 223° |
| 2026-04-20 16:36 | 32.56867 | -81.86160 | 34314 ft | 393 kts | 223° |
| 2026-04-20 16:36 | 32.52065 | -81.89206 | 34313 ft | 388 kts | 223° |
| 2026-04-20 16:37 | 32.47326 | -81.92207 | 34313 ft | 383 kts | 223° |
| 2026-04-20 16:37 | 32.42649 | -81.95165 | 34317 ft | 379 kts | 223° |
| 2026-04-20 16:38 | 32.38056 | -81.98067 | 34311 ft | 374 kts | 223° |
| 2026-04-20 16:38 | 32.33486 | -82.00951 | 34315 ft | 370 kts | 223° |
| 2026-04-20 16:39 | 32.28952 | -82.03809 | 34318 ft | 367 kts | 224° |
| 2026-04-20 16:39 | 32.24457 | -82.06639 | 34319 ft | 364 kts | 224° |
| 2026-04-20 16:40 | 32.19999 | -82.09443 | 34320 ft | 362 kts | 224° |
| 2026-04-20 16:40 | 32.15567 | -82.12228 | 34317 ft | 360 kts | 224° |
| 2026-04-20 16:41 | 32.11174 | -82.14983 | 34319 ft | 358 kts | 224° |
| 2026-04-20 16:41 | 32.06783 | -82.17736 | 34319 ft | 356 kts | 224° |
| 2026-04-20 16:42 | 32.02413 | -82.20473 | 34313 ft | 355 kts | 224° |
| 2026-04-20 16:42 | 31.98061 | -82.23195 | 34313 ft | 353 kts | 224° |
| 2026-04-20 16:43 | 31.93743 | -82.25893 | 34304 ft | 352 kts | 224° |
| 2026-04-20 16:43 | 31.89391 | -82.28608 | 34299 ft | 351 kts | 224° |
| 2026-04-20 16:44 | 31.85080 | -82.31296 | 34285 ft | 350 kts | 224° |
| 2026-04-20 16:44 | 31.80790 | -82.33968 | 34274 ft | 348 kts | 224° |
| 2026-04-20 16:45 | 31.76496 | -82.36639 | 34271 ft | 346 kts | 224° |
| 2026-04-20 16:45 | 31.72268 | -82.39266 | 34273 ft | 345 kts | 224° |
| 2026-04-20 16:46 | 31.68037 | -82.41893 | 34275 ft | 343 kts | 224° |
| 2026-04-20 16:46 | 31.63825 | -82.44505 | 34281 ft | 342 kts | 224° |
| 2026-04-20 16:47 | 31.59630 | -82.47105 | 34293 ft | 340 kts | 224° |
| 2026-04-20 16:47 | 31.55483 | -82.49737 | 34228 ft | 333 kts | 229° |
| 2026-04-20 16:48 | 31.53695 | -82.51401 | 33767 ft | 327 kts | 238° |
| 2026-04-20 16:48 | 31.52287 | -82.53396 | 33247 ft | 315 kts | 249° |
| 2026-04-20 16:48 | 31.51237 | -82.55618 | 32720 ft | 310 kts | 252° |
| 2026-04-20 16:48 | 31.50205 | -82.57819 | 32187 ft | 312 kts | 251° |
| 2026-04-20 16:49 | 31.49134 | -82.60051 | 31639 ft | 314 kts | 251° |
| 2026-04-20 16:49 | 31.48065 | -82.62257 | 31107 ft | 315 kts | 251° |
| 2026-04-20 16:49 | 31.46988 | -82.64470 | 30569 ft | 316 kts | 250° |
| 2026-04-20 16:49 | 31.45883 | -82.66734 | 30048 ft | 317 kts | 250° |
| 2026-04-20 16:50 | 31.44786 | -82.68977 | 29555 ft | 319 kts | 250° |
| 2026-04-20 16:50 | 31.43690 | -82.71219 | 29066 ft | 320 kts | 249° |
| 2026-04-20 16:50 | 31.42579 | -82.73491 | 28571 ft | 321 kts | 250° |
| 2026-04-20 16:50 | 31.41478 | -82.75738 | 28082 ft | 322 kts | 249° |
| 2026-04-20 16:51 | 31.40358 | -82.78024 | 27588 ft | 323 kts | 249° |
| 2026-04-20 16:51 | 31.39249 | -82.80286 | 27099 ft | 324 kts | 249° |
| 2026-04-20 16:51 | 31.38136 | -82.82555 | 26617 ft | 325 kts | 248° |
| 2026-04-20 16:51 | 31.37005 | -82.84858 | 26121 ft | 325 kts | 248° |
| 2026-04-20 16:52 | 31.35887 | -82.87135 | 25634 ft | 326 kts | 248° |
| 2026-04-20 16:52 | 31.34749 | -82.89449 | 25135 ft | 327 kts | 248° |
| 2026-04-20 16:52 | 31.33625 | -82.91735 | 24643 ft | 328 kts | 247° |
| 2026-04-20 16:52 | 31.32483 | -82.94056 | 24137 ft | 328 kts | 247° |
| 2026-04-20 16:53 | 31.31354 | -82.96350 | 23640 ft | 329 kts | 247° |
| 2026-04-20 16:53 | 31.30219 | -82.98653 | 23146 ft | 330 kts | 246° |
| 2026-04-20 16:53 | 31.29072 | -83.00978 | 22645 ft | 327 kts | 246° |
| 2026-04-20 16:53 | 31.27951 | -83.03252 | 22144 ft | 325 kts | 246° |
| 2026-04-20 16:54 | 31.26820 | -83.05542 | 21644 ft | 323 kts | 246° |
| 2026-04-20 16:54 | 31.25711 | -83.07787 | 21148 ft | 321 kts | 246° |
| 2026-04-20 16:54 | 31.24593 | -83.10050 | 20648 ft | 319 kts | 246° |
| 2026-04-20 16:54 | 31.23495 | -83.12270 | 20150 ft | 318 kts | 246° |
| 2026-04-20 16:55 | 31.22387 | -83.14510 | 19650 ft | 316 kts | 246° |
| 2026-04-20 16:55 | 31.21298 | -83.16709 | 19161 ft | 315 kts | 246° |
| 2026-04-20 16:55 | 31.20210 | -83.18905 | 18665 ft | 314 kts | 246° |
| 2026-04-20 16:55 | 31.19112 | -83.21123 | 18154 ft | 314 kts | 246° |
| 2026-04-20 16:56 | 31.18031 | -83.23303 | 17659 ft | 313 kts | 246° |
| 2026-04-20 16:56 | 31.16937 | -83.25507 | 17160 ft | 312 kts | 246° |
| 2026-04-20 16:56 | 31.15860 | -83.27676 | 16673 ft | 311 kts | 246° |
| 2026-04-20 16:56 | 31.14771 | -83.29870 | 16170 ft | 311 kts | 246° |
| 2026-04-20 16:57 | 31.13696 | -83.32033 | 15675 ft | 311 kts | 246° |
| 2026-04-20 16:57 | 31.12621 | -83.34195 | 15186 ft | 311 kts | 246° |
| 2026-04-20 16:57 | 31.11527 | -83.36394 | 14690 ft | 313 kts | 246° |
| 2026-04-20 16:57 | 31.10441 | -83.38577 | 14195 ft | 314 kts | 246° |
| 2026-04-20 16:58 | 31.09342 | -83.40781 | 13696 ft | 312 kts | 246° |
| 2026-04-20 16:58 | 31.08262 | -83.42947 | 13203 ft | 311 kts | 246° |
| 2026-04-20 16:58 | 31.07166 | -83.45147 | 12706 ft | 313 kts | 246° |
| 2026-04-20 16:58 | 31.06078 | -83.47328 | 12221 ft | 315 kts | 246° |
| 2026-04-20 16:59 | 31.04987 | -83.49513 | 11759 ft | 314 kts | 246° |
| 2026-04-20 16:59 | 31.03884 | -83.51719 | 11344 ft | 312 kts | 246° |
| 2026-04-20 16:59 | 31.02806 | -83.53876 | 10981 ft | 309 kts | 246° |
| 2026-04-20 16:59 | 31.01727 | -83.56032 | 10660 ft | 300 kts | 246° |
| 2026-04-20 17:00 | 30.99695 | -83.60088 | 10113 ft | 280 kts | 246° |
| 2026-04-20 17:00 | 30.98736 | -83.62003 | 9866 ft | 272 kts | 246° |
| 2026-04-20 17:00 | 30.97792 | -83.63888 | 9631 ft | 264 kts | 246° |
| 2026-04-20 17:01 | 30.96882 | -83.65704 | 9224 ft | 266 kts | 245° |
| 2026-04-20 17:01 | 30.95917 | -83.67635 | 8585 ft | 279 kts | 244° |
| 2026-04-20 17:01 | 30.94947 | -83.69566 | 8276 ft | 277 kts | 244° |
| 2026-04-20 17:01 | 30.93968 | -83.71514 | 7920 ft | 276 kts | 244° |
| 2026-04-20 17:02 | 30.93006 | -83.73430 | 7572 ft | 276 kts | 244° |
| 2026-04-20 17:02 | 30.92034 | -83.75363 | 7211 ft | 275 kts | 243° |
| 2026-04-20 17:02 | 30.91074 | -83.77271 | 6846 ft | 275 kts | 243° |
| 2026-04-20 17:02 | 30.90117 | -83.79175 | 6499 ft | 274 kts | 243° |
| 2026-04-20 17:03 | 30.89138 | -83.81121 | 6120 ft | 273 kts | 242° |
| 2026-04-20 17:03 | 30.88180 | -83.83021 | 5733 ft | 274 kts | 242° |
| 2026-04-20 17:03 | 30.87225 | -83.84917 | 5362 ft | 273 kts | 242° |
| 2026-04-20 17:03 | 30.86258 | -83.86835 | 4994 ft | 272 kts | 242° |
| 2026-04-20 17:04 | 30.85303 | -83.88729 | 4573 ft | 274 kts | 241° |
| 2026-04-20 17:04 | 30.84344 | -83.90630 | 4195 ft | 274 kts | 241° |
| 2026-04-20 17:04 | 30.83376 | -83.92547 | 3842 ft | 272 kts | 240° |
| 2026-04-20 17:04 | 30.82427 | -83.94426 | 3502 ft | 271 kts | 240° |
| 2026-04-20 17:05 | 30.81481 | -83.96295 | 3304 ft | 268 kts | 240° |
| 2026-04-20 17:05 | 30.80538 | -83.98160 | 3289 ft | 264 kts | 240° |
| 2026-04-20 17:05 | 30.79618 | -83.99979 | 3291 ft | 262 kts | 241° |
| 2026-04-20 17:05 | 30.78683 | -84.01828 | 3291 ft | 264 kts | 240° |
| 2026-04-20 17:06 | 30.77754 | -84.03665 | 3284 ft | 266 kts | 241° |
| 2026-04-20 17:06 | 30.76801 | -84.05550 | 2987 ft | 273 kts | 240° |
| 2026-04-20 17:06 | 30.75840 | -84.07446 | 2959 ft | 267 kts | 240° |
| 2026-04-20 17:06 | 30.74911 | -84.09277 | 2948 ft | 262 kts | 240° |
| 2026-04-20 17:07 | 30.73987 | -84.11100 | 2948 ft | 257 kts | 240° |
| 2026-04-20 17:07 | 30.73091 | -84.12865 | 2954 ft | 253 kts | 240° |
| 2026-04-20 17:07 | 30.72197 | -84.14625 | 2951 ft | 249 kts | 240° |
| 2026-04-20 17:07 | 30.71328 | -84.16337 | 2951 ft | 246 kts | 240° |
| 2026-04-20 17:08 | 30.70470 | -84.18025 | 2954 ft | 242 kts | 240° |
| 2026-04-20 17:08 | 30.69608 | -84.19720 | 2954 ft | 241 kts | 240° |
| 2026-04-20 17:08 | 30.68763 | -84.21383 | 2955 ft | 240 kts | 240° |
| 2026-04-20 17:08 | 30.67908 | -84.23063 | 2951 ft | 239 kts | 241° |
| 2026-04-20 17:09 | 30.67064 | -84.24721 | 2959 ft | 240 kts | 240° |
| 2026-04-20 17:09 | 30.66205 | -84.26407 | 2953 ft | 241 kts | 241° |
| 2026-04-20 17:09 | 30.65354 | -84.28078 | 2951 ft | 242 kts | 240° |
| 2026-04-20 17:09 | 30.64500 | -84.29753 | 2952 ft | 243 kts | 240° |
| 2026-04-20 17:10 | 30.63632 | -84.31455 | 2957 ft | 243 kts | 240° |
| 2026-04-20 17:10 | 30.62789 | -84.33107 | 2985 ft | 238 kts | 240° |
| 2026-04-20 17:10 | 30.61918 | -84.34718 | 2947 ft | 236 kts | 230° |
| 2026-04-20 17:10 | 30.60568 | -84.35727 | 2961 ft | 226 kts | 193° |
| 2026-04-20 17:11 | 30.59085 | -84.36000 | 3004 ft | 206 kts | 179° |
| 2026-04-20 17:11 | 30.57670 | -84.36049 | 2953 ft | 196 kts | 176° |
| 2026-04-20 17:11 | 30.56335 | -84.36048 | 2922 ft | 194 kts | 174° |
| 2026-04-20 17:11 | 30.54969 | -84.36036 | 2689 ft | 196 kts | 175° |
| 2026-04-20 17:12 | 30.53597 | -84.36023 | 2445 ft | 197 kts | 174° |
| 2026-04-20 17:12 | 30.52222 | -84.36008 | 2189 ft | 196 kts | 175° |
| 2026-04-20 17:12 | 30.50887 | -84.35998 | 1930 ft | 184 kts | 174° |
| 2026-04-20 17:12 | 30.49675 | -84.35986 | 1706 ft | 163 kts | 173° |
| 2026-04-20 17:13 | 30.48578 | -84.35973 | 1485 ft | 152 kts | 173° |
| 2026-04-20 17:13 | 30.47533 | -84.35962 | 1287 ft | 149 kts | 174° |
| 2026-04-20 17:13 | 30.46467 | -84.35950 | 1104 ft | 156 kts | 175° |
| 2026-04-20 17:13 | 30.45361 | -84.35941 | 888 ft | 160 kts | 175° |
| 2026-04-20 17:14 | 30.44257 | -84.35943 | 683 ft | 158 kts | 175° |
| 2026-04-20 17:14 | 30.43151 | -84.35922 | 472 ft | 155 kts | 175° |
| 2026-04-20 17:14 | 30.42085 | -84.35916 | 278 ft | 152 kts | 175° |
| 2026-04-20 17:14 | 30.41030 | -84.35900 | 93 ft | 150 kts | 175° |
| 2026-04-20 17:15 | 30.40100 | -84.35886 | 65 ft | 112 kts | 179° |
| 2026-04-20 17:15 | 30.39532 | -84.35880 | 59 ft | 35 kts | 180° |
| 2026-04-20 17:15 | 30.39423 | -84.35857 | 59 ft | 12 kts | 134° |
| 2026-04-20 17:15 | 30.39407 | -84.35799 | 59 ft | 0 kts | 94° |
| 2026-04-20 17:16 | 30.39407 | -84.35797 | 59 ft | 0 kts | 94° |
| 2026-04-20 17:16 | 30.39406 | -84.35771 | 59 ft | 7 kts | 90° |
| 2026-04-20 17:16 | 30.39407 | -84.35672 | 60 ft | 17 kts | 89° |
| 2026-04-20 17:16 | 30.39409 | -84.35499 | 61 ft | 23 kts | 89° |
| 2026-04-20 17:17 | 30.39411 | -84.35306 | 63 ft | 24 kts | 92° |
| 2026-04-20 17:17 | 30.39412 | -84.35113 | 65 ft | 24 kts | 90° |
| 2026-04-20 17:17 | 30.39414 | -84.34919 | 67 ft | 24 kts | 88° |
| 2026-04-20 17:17 | 30.39413 | -84.34751 | 68 ft | 9 kts | 91° |
| 2026-04-20 17:18 | 30.39381 | -84.34703 | 68 ft | 7 kts | 133° |
| 2026-04-20 17:18 | 30.39385 | -84.34666 | 68 ft | 5 kts | 45° |
| 2026-04-20 17:18 | 30.39418 | -84.34635 | 68 ft | 3 kts | 39° |
| 2026-04-20 17:18 | 30.39422 | -84.34631 | 68 ft | 0 kts | 39° |